sensor_id;sensor_type;location;lat;lon;timestamp;temperature;humidity
17182;DHT22;8706;48.254;16.422;2024-01-27T00:00:10;19.20;58.30
17182;DHT22;8706;48.254;16.422;2024-01-27T00:02:37;19.30;58.30
17182;DHT22;8706;48.254;16.422;2024-01-27T00:05:07;19.20;58.40
17182;DHT22;8706;48.254;16.422;2024-01-27T00:07:36;19.20;58.30
17182;DHT22;8706;48.254;16.422;2024-01-27T00:10:03;19.30;58.30
17182;DHT22;8706;48.254;16.422;2024-01-27T00:12:30;19.30;58.40
17182;DHT22;8706;48.254;16.422;2024-01-27T00:14:57;19.20;58.30
17182;DHT22;8706;48.254;16.422;2024-01-27T00:17:24;19.20;58.40
17182;DHT22;8706;48.254;16.422;2024-01-27T00:19:53;19.20;58.40
17182;DHT22;8706;48.254;16.422;2024-01-27T00:22:20;19.20;58.40
17182;DHT22;8706;48.254;16.422;2024-01-27T00:24:48;19.20;58.40
17182;DHT22;8706;48.254;16.422;2024-01-27T00:27:15;19.20;58.50
17182;DHT22;8706;48.254;16.422;2024-01-27T00:29:42;19.30;58.50
17182;DHT22;8706;48.254;16.422;2024-01-27T00:32:09;19.20;58.30
17182;DHT22;8706;48.254;16.422;2024-01-27T00:34:36;19.20;58.40
17182;DHT22;8706;48.254;16.422;2024-01-27T00:37:03;19.10;58.50
17182;DHT22;8706;48.254;16.422;2024-01-27T00:39:31;19.20;58.50
17182;DHT22;8706;48.254;16.422;2024-01-27T00:41:59;19.20;58.30
17182;DHT22;8706;48.254;16.422;2024-01-27T00:44:26;19.20;58.40
17182;DHT22;8706;48.254;16.422;2024-01-27T00:46:53;19.20;58.40
17182;DHT22;8706;48.254;16.422;2024-01-27T00:49:20;19.20;58.40
17182;DHT22;8706;48.254;16.422;2024-01-27T00:51:47;19.20;58.30
17182;DHT22;8706;48.254;16.422;2024-01-27T00:54:14;19.20;58.40
17182;DHT22;8706;48.254;16.422;2024-01-27T00:56:41;19.20;58.40
17182;DHT22;8706;48.254;16.422;2024-01-27T00:59:09;19.20;58.30
17182;DHT22;8706;48.254;16.422;2024-01-27T01:01:36;19.20;58.40
17182;DHT22;8706;48.254;16.422;2024-01-27T01:04:03;19.20;58.50
17182;DHT22;8706;48.254;16.422;2024-01-27T01:06:30;19.10;58.50
17182;DHT22;8706;48.254;16.422;2024-01-27T01:08:56;19.10;58.50
17182;DHT22;8706;48.254;16.422;2024-01-27T01:11:23;19.20;58.50
17182;DHT22;8706;48.254;16.422;2024-01-27T01:13:50;19.20;58.40
17182;DHT22;8706;48.254;16.422;2024-01-27T01:16:18;19.20;58.40
17182;DHT22;8706;48.254;16.422;2024-01-27T01:18:45;19.20;58.50
17182;DHT22;8706;48.254;16.422;2024-01-27T01:21:12;19.20;58.50
17182;DHT22;8706;48.254;16.422;2024-01-27T01:23:39;19.20;58.50
17182;DHT22;8706;48.254;16.422;2024-01-27T01:26:06;19.10;58.50
17182;DHT22;8706;48.254;16.422;2024-01-27T01:28:33;19.10;58.50
17182;DHT22;8706;48.254;16.422;2024-01-27T01:31:00;19.20;58.50
17182;DHT22;8706;48.254;16.422;2024-01-27T01:33:28;19.20;58.50
17182;DHT22;8706;48.254;16.422;2024-01-27T01:35:55;19.20;58.50
17182;DHT22;8706;48.254;16.422;2024-01-27T01:38:22;19.20;58.50
17182;DHT22;8706;48.254;16.422;2024-01-27T01:40:49;19.20;58.50
17182;DHT22;8706;48.254;16.422;2024-01-27T01:43:15;19.20;58.50
17182;DHT22;8706;48.254;16.422;2024-01-27T01:45:42;19.20;58.50
17182;DHT22;8706;48.254;16.422;2024-01-27T01:48:09;19.20;58.50
17182;DHT22;8706;48.254;16.422;2024-01-27T01:50:37;19.10;58.60
17182;DHT22;8706;48.254;16.422;2024-01-27T01:53:04;19.20;58.50
17182;DHT22;8706;48.254;16.422;2024-01-27T01:55:32;19.10;58.60
17182;DHT22;8706;48.254;16.422;2024-01-27T01:57:59;19.10;59.20
17182;DHT22;8706;48.254;16.422;2024-01-27T02:00:26;19.20;58.60
17182;DHT22;8706;48.254;16.422;2024-01-27T02:02:52;19.10;58.60
17182;DHT22;8706;48.254;16.422;2024-01-27T02:05:19;19.10;58.60
17182;DHT22;8706;48.254;16.422;2024-01-27T02:07:48;19.10;58.60
17182;DHT22;8706;48.254;16.422;2024-01-27T02:10:16;19.20;58.60
17182;DHT22;8706;48.254;16.422;2024-01-27T02:12:43;19.10;58.50
17182;DHT22;8706;48.254;16.422;2024-01-27T02:15:11;19.10;58.60
17182;DHT22;8706;48.254;16.422;2024-01-27T02:17:39;19.20;58.60
17182;DHT22;8706;48.254;16.422;2024-01-27T02:20:07;19.10;58.50
17182;DHT22;8706;48.254;16.422;2024-01-27T02:22:34;19.10;58.60
17182;DHT22;8706;48.254;16.422;2024-01-27T02:25:03;19.10;58.70
17182;DHT22;8706;48.254;16.422;2024-01-27T02:27:30;19.10;58.70
17182;DHT22;8706;48.254;16.422;2024-01-27T02:29:57;19.10;58.70
17182;DHT22;8706;48.254;16.422;2024-01-27T02:32:24;19.10;58.70
17182;DHT22;8706;48.254;16.422;2024-01-27T02:34:51;19.10;58.80
17182;DHT22;8706;48.254;16.422;2024-01-27T02:37:18;19.10;58.70
17182;DHT22;8706;48.254;16.422;2024-01-27T02:39:45;19.10;58.70
17182;DHT22;8706;48.254;16.422;2024-01-27T02:42:13;19.10;58.70
17182;DHT22;8706;48.254;16.422;2024-01-27T02:44:40;19.10;58.60
17182;DHT22;8706;48.254;16.422;2024-01-27T02:47:07;19.00;58.70
17182;DHT22;8706;48.254;16.422;2024-01-27T02:49:34;19.10;58.70
17182;DHT22;8706;48.254;16.422;2024-01-27T02:52:00;19.00;58.70
17182;DHT22;8706;48.254;16.422;2024-01-27T02:54:27;19.00;58.70
17182;DHT22;8706;48.254;16.422;2024-01-27T02:56:54;19.00;58.60
17182;DHT22;8706;48.254;16.422;2024-01-27T02:59:22;19.00;58.70
17182;DHT22;8706;48.254;16.422;2024-01-27T03:01:49;19.00;58.60
17182;DHT22;8706;48.254;16.422;2024-01-27T03:04:16;19.00;58.70
17182;DHT22;8706;48.254;16.422;2024-01-27T03:06:43;19.00;58.70
17182;DHT22;8706;48.254;16.422;2024-01-27T03:09:10;19.00;58.80
17182;DHT22;8706;48.254;16.422;2024-01-27T03:11:37;19.00;58.70
17182;DHT22;8706;48.254;16.422;2024-01-27T03:14:04;19.00;58.70
17182;DHT22;8706;48.254;16.422;2024-01-27T03:16:32;19.00;58.70
17182;DHT22;8706;48.254;16.422;2024-01-27T03:18:59;19.00;58.70
17182;DHT22;8706;48.254;16.422;2024-01-27T03:21:26;19.00;58.70
17182;DHT22;8706;48.254;16.422;2024-01-27T03:23:53;19.00;58.70
17182;DHT22;8706;48.254;16.422;2024-01-27T03:26:20;19.00;58.60
17182;DHT22;8706;48.254;16.422;2024-01-27T03:28:47;19.00;58.70
17182;DHT22;8706;48.254;16.422;2024-01-27T03:31:14;19.00;58.50
17182;DHT22;8706;48.254;16.422;2024-01-27T03:33:42;19.00;58.70
17182;DHT22;8706;48.254;16.422;2024-01-27T03:36:09;19.00;58.60
17182;DHT22;8706;48.254;16.422;2024-01-27T03:38:37;19.00;58.60
17182;DHT22;8706;48.254;16.422;2024-01-27T03:41:04;19.00;58.60
17182;DHT22;8706;48.254;16.422;2024-01-27T03:43:32;19.00;59.20
17182;DHT22;8706;48.254;16.422;2024-01-27T03:45:59;19.00;58.70
17182;DHT22;8706;48.254;16.422;2024-01-27T03:48:26;19.00;58.50
17182;DHT22;8706;48.254;16.422;2024-01-27T03:50:55;19.00;58.60
17182;DHT22;8706;48.254;16.422;2024-01-27T03:53:21;19.00;58.60
17182;DHT22;8706;48.254;16.422;2024-01-27T03:55:48;19.00;58.50
17182;DHT22;8706;48.254;16.422;2024-01-27T03:58:15;19.00;58.60
17182;DHT22;8706;48.254;16.422;2024-01-27T04:00:42;19.00;58.60
17182;DHT22;8706;48.254;16.422;2024-01-27T04:03:09;19.00;58.60
17182;DHT22;8706;48.254;16.422;2024-01-27T04:05:36;19.00;58.60
17182;DHT22;8706;48.254;16.422;2024-01-27T04:08:05;19.00;58.70
17182;DHT22;8706;48.254;16.422;2024-01-27T04:10:32;18.90;58.60
17182;DHT22;8706;48.254;16.422;2024-01-27T04:12:59;19.00;59.30
17182;DHT22;8706;48.254;16.422;2024-01-27T04:15:26;19.00;58.70
17182;DHT22;8706;48.254;16.422;2024-01-27T04:17:53;18.90;58.60
17182;DHT22;8706;48.254;16.422;2024-01-27T04:20:21;19.00;58.60
17182;DHT22;8706;48.254;16.422;2024-01-27T04:22:47;19.00;58.50
17182;DHT22;8706;48.254;16.422;2024-01-27T04:25:16;19.00;58.70
17182;DHT22;8706;48.254;16.422;2024-01-27T04:27:43;18.90;58.60
17182;DHT22;8706;48.254;16.422;2024-01-27T04:30:11;18.90;58.70
17182;DHT22;8706;48.254;16.422;2024-01-27T04:32:39;18.90;58.70
17182;DHT22;8706;48.254;16.422;2024-01-27T04:35:09;18.90;58.70
17182;DHT22;8706;48.254;16.422;2024-01-27T04:37:36;18.90;58.70
17182;DHT22;8706;48.254;16.422;2024-01-27T04:40:04;18.90;58.70
17182;DHT22;8706;48.254;16.422;2024-01-27T04:42:34;18.90;58.70
17182;DHT22;8706;48.254;16.422;2024-01-27T04:45:01;18.90;58.70
17182;DHT22;8706;48.254;16.422;2024-01-27T04:47:30;18.90;58.70
17182;DHT22;8706;48.254;16.422;2024-01-27T04:49:57;18.90;58.70
17182;DHT22;8706;48.254;16.422;2024-01-27T04:52:24;18.90;58.70
17182;DHT22;8706;48.254;16.422;2024-01-27T04:54:51;18.90;58.60
17182;DHT22;8706;48.254;16.422;2024-01-27T04:57:18;18.90;58.70
17182;DHT22;8706;48.254;16.422;2024-01-27T04:59:46;18.90;58.70
17182;DHT22;8706;48.254;16.422;2024-01-27T05:02:13;18.90;58.60
17182;DHT22;8706;48.254;16.422;2024-01-27T05:04:40;18.90;58.60
17182;DHT22;8706;48.254;16.422;2024-01-27T05:07:07;18.90;58.60
17182;DHT22;8706;48.254;16.422;2024-01-27T05:09:34;18.90;58.70
17182;DHT22;8706;48.254;16.422;2024-01-27T05:12:02;18.90;58.70
17182;DHT22;8706;48.254;16.422;2024-01-27T05:14:28;18.90;58.70
17182;DHT22;8706;48.254;16.422;2024-01-27T05:16:57;18.80;58.70
17182;DHT22;8706;48.254;16.422;2024-01-27T05:19:23;18.90;58.70
17182;DHT22;8706;48.254;16.422;2024-01-27T05:21:50;18.90;58.70
17182;DHT22;8706;48.254;16.422;2024-01-27T05:24:17;18.90;58.70
17182;DHT22;8706;48.254;16.422;2024-01-27T05:26:44;18.80;58.70
17182;DHT22;8706;48.254;16.422;2024-01-27T05:29:11;18.90;58.70
17182;DHT22;8706;48.254;16.422;2024-01-27T05:31:38;18.90;58.70
17182;DHT22;8706;48.254;16.422;2024-01-27T05:34:06;18.90;58.70
17182;DHT22;8706;48.254;16.422;2024-01-27T05:36:33;18.80;58.60
17182;DHT22;8706;48.254;16.422;2024-01-27T05:39:00;18.80;58.70
17182;DHT22;8706;48.254;16.422;2024-01-27T05:41:28;18.80;58.70
17182;DHT22;8706;48.254;16.422;2024-01-27T05:43:55;18.80;58.70
17182;DHT22;8706;48.254;16.422;2024-01-27T05:46:23;18.90;58.70
17182;DHT22;8706;48.254;16.422;2024-01-27T05:48:51;18.80;58.60
17182;DHT22;8706;48.254;16.422;2024-01-27T05:51:21;18.90;58.60
17182;DHT22;8706;48.254;16.422;2024-01-27T05:53:48;18.80;58.60
17182;DHT22;8706;48.254;16.422;2024-01-27T05:56:15;18.90;58.60
17182;DHT22;8706;48.254;16.422;2024-01-27T05:58:42;18.80;58.70
17182;DHT22;8706;48.254;16.422;2024-01-27T06:01:09;18.80;58.60
17182;DHT22;8706;48.254;16.422;2024-01-27T06:03:36;18.80;58.70
17182;DHT22;8706;48.254;16.422;2024-01-27T06:06:03;18.90;58.50
17182;DHT22;8706;48.254;16.422;2024-01-27T06:08:31;18.90;58.60
17182;DHT22;8706;48.254;16.422;2024-01-27T06:10:58;18.90;58.50
17182;DHT22;8706;48.254;16.422;2024-01-27T06:13:25;18.80;58.60
17182;DHT22;8706;48.254;16.422;2024-01-27T06:15:52;18.80;58.50
17182;DHT22;8706;48.254;16.422;2024-01-27T06:18:18;18.80;58.60
17182;DHT22;8706;48.254;16.422;2024-01-27T06:20:46;18.80;58.60
17182;DHT22;8706;48.254;16.422;2024-01-27T06:23:13;18.80;58.60
17182;DHT22;8706;48.254;16.422;2024-01-27T06:25:42;18.80;58.60
17182;DHT22;8706;48.254;16.422;2024-01-27T06:28:09;18.80;58.70
17182;DHT22;8706;48.254;16.422;2024-01-27T06:30:36;18.80;58.60
17182;DHT22;8706;48.254;16.422;2024-01-27T06:33:03;18.80;58.50
17182;DHT22;8706;48.254;16.422;2024-01-27T06:35:30;18.80;58.60
17182;DHT22;8706;48.254;16.422;2024-01-27T06:37:57;18.80;58.50
17182;DHT22;8706;48.254;16.422;2024-01-27T06:40:23;18.80;58.60
17182;DHT22;8706;48.254;16.422;2024-01-27T06:42:52;18.80;58.60
17182;DHT22;8706;48.254;16.422;2024-01-27T06:45:19;18.80;58.70
17182;DHT22;8706;48.254;16.422;2024-01-27T06:47:46;18.80;58.60
17182;DHT22;8706;48.254;16.422;2024-01-27T06:50:12;18.80;58.50
17182;DHT22;8706;48.254;16.422;2024-01-27T06:52:40;18.90;58.60
17182;DHT22;8706;48.254;16.422;2024-01-27T06:55:07;18.90;58.50
17182;DHT22;8706;48.254;16.422;2024-01-27T06:57:36;18.80;58.50
17182;DHT22;8706;48.254;16.422;2024-01-27T07:00:06;18.80;58.50
17182;DHT22;8706;48.254;16.422;2024-01-27T07:02:33;18.90;58.50
17182;DHT22;8706;48.254;16.422;2024-01-27T07:04:59;18.90;58.40
17182;DHT22;8706;48.254;16.422;2024-01-27T07:07:28;19.00;58.30
17182;DHT22;8706;48.254;16.422;2024-01-27T07:09:55;19.00;58.20
17182;DHT22;8706;48.254;16.422;2024-01-27T07:12:22;19.00;58.30
17182;DHT22;8706;48.254;16.422;2024-01-27T07:14:49;19.00;58.20
17182;DHT22;8706;48.254;16.422;2024-01-27T07:17:19;19.10;58.20
17182;DHT22;8706;48.254;16.422;2024-01-27T07:19:45;19.10;58.10
17182;DHT22;8706;48.254;16.422;2024-01-27T07:22:12;19.10;58.20
17182;DHT22;8706;48.254;16.422;2024-01-27T07:24:39;19.20;58.00
17182;DHT22;8706;48.254;16.422;2024-01-27T07:27:06;19.20;58.00
17182;DHT22;8706;48.254;16.422;2024-01-27T07:29:33;19.30;57.90
17182;DHT22;8706;48.254;16.422;2024-01-27T07:32:00;19.30;57.80
17182;DHT22;8706;48.254;16.422;2024-01-27T07:34:29;19.40;57.70
17182;DHT22;8706;48.254;16.422;2024-01-27T07:36:55;19.40;57.60
17182;DHT22;8706;48.254;16.422;2024-01-27T07:39:22;19.40;57.60
17182;DHT22;8706;48.254;16.422;2024-01-27T07:41:49;19.50;57.50
17182;DHT22;8706;48.254;16.422;2024-01-27T07:44:18;19.50;57.40
17182;DHT22;8706;48.254;16.422;2024-01-27T07:46:45;19.60;57.30
17182;DHT22;8706;48.254;16.422;2024-01-27T07:49:12;19.60;57.20
17182;DHT22;8706;48.254;16.422;2024-01-27T07:51:42;19.70;57.10
17182;DHT22;8706;48.254;16.422;2024-01-27T07:54:08;19.80;57.10
17182;DHT22;8706;48.254;16.422;2024-01-27T07:56:35;19.80;57.00
17182;DHT22;8706;48.254;16.422;2024-01-27T07:59:02;19.90;56.90
17182;DHT22;8706;48.254;16.422;2024-01-27T08:01:29;19.90;56.80
17182;DHT22;8706;48.254;16.422;2024-01-27T08:03:56;20.00;56.70
17182;DHT22;8706;48.254;16.422;2024-01-27T08:06:27;20.00;56.60
17182;DHT22;8706;48.254;16.422;2024-01-27T08:08:56;20.20;56.50
17182;DHT22;8706;48.254;16.422;2024-01-27T08:11:23;20.20;56.40
17182;DHT22;8706;48.254;16.422;2024-01-27T08:13:50;20.30;56.30
17182;DHT22;8706;48.254;16.422;2024-01-27T08:16:17;20.40;56.20
17182;DHT22;8706;48.254;16.422;2024-01-27T08:18:44;20.40;56.10
17182;DHT22;8706;48.254;16.422;2024-01-27T08:21:11;20.50;55.90
17182;DHT22;8706;48.254;16.422;2024-01-27T08:23:38;20.50;55.80
17182;DHT22;8706;48.254;16.422;2024-01-27T08:26:06;20.60;55.70
17182;DHT22;8706;48.254;16.422;2024-01-27T08:28:33;20.60;55.60
17182;DHT22;8706;48.254;16.422;2024-01-27T08:31:00;20.70;55.60
17182;DHT22;8706;48.254;16.422;2024-01-27T08:33:27;20.70;55.50
17182;DHT22;8706;48.254;16.422;2024-01-27T08:35:54;20.80;55.50
17182;DHT22;8706;48.254;16.422;2024-01-27T08:38:21;20.80;55.30
17182;DHT22;8706;48.254;16.422;2024-01-27T08:40:48;20.90;55.30
17182;DHT22;8706;48.254;16.422;2024-01-27T08:43:16;20.90;55.30
17182;DHT22;8706;48.254;16.422;2024-01-27T08:45:43;20.90;55.30
17182;DHT22;8706;48.254;16.422;2024-01-27T08:48:10;20.90;55.30
17182;DHT22;8706;48.254;16.422;2024-01-27T08:50:38;20.90;55.40
17182;DHT22;8706;48.254;16.422;2024-01-27T08:53:05;20.90;55.40
17182;DHT22;8706;48.254;16.422;2024-01-27T08:55:31;20.90;55.40
17182;DHT22;8706;48.254;16.422;2024-01-27T08:57:58;20.90;55.30
17182;DHT22;8706;48.254;16.422;2024-01-27T09:00:27;21.00;55.20
17182;DHT22;8706;48.254;16.422;2024-01-27T09:02:55;21.00;55.10
17182;DHT22;8706;48.254;16.422;2024-01-27T09:05:22;21.10;54.90
17182;DHT22;8706;48.254;16.422;2024-01-27T09:07:49;21.20;54.70
17182;DHT22;8706;48.254;16.422;2024-01-27T09:10:16;21.30;54.60
17182;DHT22;8706;48.254;16.422;2024-01-27T09:12:43;21.40;54.30
17182;DHT22;8706;48.254;16.422;2024-01-27T09:15:10;21.60;54.10
17182;DHT22;8706;48.254;16.422;2024-01-27T09:17:38;21.80;53.90
17182;DHT22;8706;48.254;16.422;2024-01-27T09:20:06;21.90;53.60
17182;DHT22;8706;48.254;16.422;2024-01-27T09:22:34;22.00;53.40
17182;DHT22;8706;48.254;16.422;2024-01-27T09:25:01;22.10;53.20
17182;DHT22;8706;48.254;16.422;2024-01-27T09:27:28;22.20;53.10
17182;DHT22;8706;48.254;16.422;2024-01-27T09:29:55;22.30;53.00
17182;DHT22;8706;48.254;16.422;2024-01-27T09:32:22;22.30;52.90
17182;DHT22;8706;48.254;16.422;2024-01-27T09:34:50;22.40;52.80
17182;DHT22;8706;48.254;16.422;2024-01-27T09:37:19;22.50;52.70
17182;DHT22;8706;48.254;16.422;2024-01-27T09:39:46;22.60;52.60
17182;DHT22;8706;48.254;16.422;2024-01-27T09:42:13;22.60;52.50
17182;DHT22;8706;48.254;16.422;2024-01-27T09:44:43;22.70;52.40
17182;DHT22;8706;48.254;16.422;2024-01-27T09:47:11;22.70;52.10
17182;DHT22;8706;48.254;16.422;2024-01-27T09:49:39;22.80;52.20
17182;DHT22;8706;48.254;16.422;2024-01-27T09:52:09;22.80;52.00
17182;DHT22;8706;48.254;16.422;2024-01-27T09:54:36;22.90;52.10
17182;DHT22;8706;48.254;16.422;2024-01-27T09:57:03;22.90;51.90
17182;DHT22;8706;48.254;16.422;2024-01-27T09:59:32;23.00;51.70
17182;DHT22;8706;48.254;16.422;2024-01-27T10:02:00;23.10;51.70
17182;DHT22;8706;48.254;16.422;2024-01-27T10:04:29;23.00;51.70
17182;DHT22;8706;48.254;16.422;2024-01-27T10:06:57;23.10;51.60
17182;DHT22;8706;48.254;16.422;2024-01-27T10:09:25;23.10;51.60
17182;DHT22;8706;48.254;16.422;2024-01-27T10:11:54;23.10;51.60
17182;DHT22;8706;48.254;16.422;2024-01-27T10:14:22;23.10;51.60
17182;DHT22;8706;48.254;16.422;2024-01-27T10:16:49;23.20;51.60
17182;DHT22;8706;48.254;16.422;2024-01-27T10:19:17;23.30;51.50
17182;DHT22;8706;48.254;16.422;2024-01-27T10:21:45;23.20;51.40
17182;DHT22;8706;48.254;16.422;2024-01-27T10:24:12;23.20;51.50
17182;DHT22;8706;48.254;16.422;2024-01-27T10:26:40;23.20;51.50
17182;DHT22;8706;48.254;16.422;2024-01-27T10:29:08;23.40;51.40
17182;DHT22;8706;48.254;16.422;2024-01-27T10:31:36;23.40;51.30
17182;DHT22;8706;48.254;16.422;2024-01-27T10:34:03;23.50;51.20
17182;DHT22;8706;48.254;16.422;2024-01-27T10:36:40;23.50;51.10
17182;DHT22;8706;48.254;16.422;2024-01-27T10:39:17;23.50;51.20
17182;DHT22;8706;48.254;16.422;2024-01-27T10:41:47;23.40;51.20
17182;DHT22;8706;48.254;16.422;2024-01-27T10:44:15;23.30;51.30
17182;DHT22;8706;48.254;16.422;2024-01-27T10:46:44;23.20;51.40
17182;DHT22;8706;48.254;16.422;2024-01-27T10:49:13;23.20;51.50
17182;DHT22;8706;48.254;16.422;2024-01-27T10:51:44;23.00;51.70
17182;DHT22;8706;48.254;16.422;2024-01-27T10:54:14;22.80;52.00
17182;DHT22;8706;48.254;16.422;2024-01-27T10:56:42;22.70;52.30
17182;DHT22;8706;48.254;16.422;2024-01-27T10:59:14;22.60;52.40
17182;DHT22;8706;48.254;16.422;2024-01-27T11:01:43;22.60;52.50
17182;DHT22;8706;48.254;16.422;2024-01-27T11:04:11;22.70;52.40
17182;DHT22;8706;48.254;16.422;2024-01-27T11:06:40;22.90;52.00
17182;DHT22;8706;48.254;16.422;2024-01-27T11:09:10;22.90;52.10
17182;DHT22;8706;48.254;16.422;2024-01-27T11:11:40;22.90;52.00
17182;DHT22;8706;48.254;16.422;2024-01-27T11:14:07;23.00;51.80
17182;DHT22;8706;48.254;16.422;2024-01-27T11:16:36;23.00;51.90
17182;DHT22;8706;48.254;16.422;2024-01-27T11:19:09;23.20;51.70
17182;DHT22;8706;48.254;16.422;2024-01-27T11:21:37;23.30;51.50
17182;DHT22;8706;48.254;16.422;2024-01-27T11:24:13;23.40;51.40
17182;DHT22;8706;48.254;16.422;2024-01-27T11:26:40;23.30;51.40
17182;DHT22;8706;48.254;16.422;2024-01-27T11:29:07;23.30;51.40
17182;DHT22;8706;48.254;16.422;2024-01-27T11:31:40;23.50;51.30
17182;DHT22;8706;48.254;16.422;2024-01-27T11:34:10;23.50;51.10
17182;DHT22;8706;48.254;16.422;2024-01-27T11:36:38;23.60;51.00
17182;DHT22;8706;48.254;16.422;2024-01-27T11:39:23;23.60;51.00
17182;DHT22;8706;48.254;16.422;2024-01-27T11:41:50;23.60;51.00
17182;DHT22;8706;48.254;16.422;2024-01-27T11:44:17;23.60;51.00
17182;DHT22;8706;48.254;16.422;2024-01-27T11:46:45;23.60;51.00
17182;DHT22;8706;48.254;16.422;2024-01-27T11:49:15;23.60;51.10
17182;DHT22;8706;48.254;16.422;2024-01-27T11:51:42;23.50;51.10
17182;DHT22;8706;48.254;16.422;2024-01-27T11:54:09;23.50;51.20
17182;DHT22;8706;48.254;16.422;2024-01-27T11:56:36;23.40;51.40
17182;DHT22;8706;48.254;16.422;2024-01-27T11:59:03;23.40;51.40
17182;DHT22;8706;48.254;16.422;2024-01-27T12:01:30;23.20;51.50
17182;DHT22;8706;48.254;16.422;2024-01-27T12:03:58;23.20;51.70
17182;DHT22;8706;48.254;16.422;2024-01-27T12:06:25;23.20;51.70
17182;DHT22;8706;48.254;16.422;2024-01-27T12:08:54;23.10;51.80
17182;DHT22;8706;48.254;16.422;2024-01-27T12:11:22;23.30;51.60
17182;DHT22;8706;48.254;16.422;2024-01-27T12:13:49;23.30;51.50
17182;DHT22;8706;48.254;16.422;2024-01-27T12:16:16;23.20;51.70
17182;DHT22;8706;48.254;16.422;2024-01-27T12:18:43;23.20;51.80
17182;DHT22;8706;48.254;16.422;2024-01-27T12:21:12;23.20;51.80
17182;DHT22;8706;48.254;16.422;2024-01-27T12:23:49;23.10;51.80
17182;DHT22;8706;48.254;16.422;2024-01-27T12:26:16;23.10;51.90
17182;DHT22;8706;48.254;16.422;2024-01-27T12:28:45;23.30;51.80
17182;DHT22;8706;48.254;16.422;2024-01-27T12:31:12;23.40;51.60
17182;DHT22;8706;48.254;16.422;2024-01-27T12:33:39;23.50;51.50
17182;DHT22;8706;48.254;16.422;2024-01-27T12:36:08;23.50;51.30
17182;DHT22;8706;48.254;16.422;2024-01-27T12:38:37;23.60;51.30
17182;DHT22;8706;48.254;16.422;2024-01-27T12:41:04;23.70;51.20
17182;DHT22;8706;48.254;16.422;2024-01-27T12:43:31;23.80;51.10
17182;DHT22;8706;48.254;16.422;2024-01-27T12:45:58;23.90;51.00
17182;DHT22;8706;48.254;16.422;2024-01-27T12:48:24;23.90;51.00
17182;DHT22;8706;48.254;16.422;2024-01-27T12:50:51;23.90;50.90
17182;DHT22;8706;48.254;16.422;2024-01-27T12:53:18;24.00;50.90
17182;DHT22;8706;48.254;16.422;2024-01-27T12:55:46;24.00;50.90
17182;DHT22;8706;48.254;16.422;2024-01-27T12:58:13;24.10;50.80
17182;DHT22;8706;48.254;16.422;2024-01-27T13:00:40;24.10;50.80
17182;DHT22;8706;48.254;16.422;2024-01-27T13:03:07;24.10;50.70
17182;DHT22;8706;48.254;16.422;2024-01-27T13:05:34;24.10;50.60
17182;DHT22;8706;48.254;16.422;2024-01-27T13:08:01;24.10;50.60
17182;DHT22;8706;48.254;16.422;2024-01-27T13:10:29;24.10;50.60
17182;DHT22;8706;48.254;16.422;2024-01-27T13:12:58;24.20;50.50
17182;DHT22;8706;48.254;16.422;2024-01-27T13:15:24;24.30;50.50
17182;DHT22;8706;48.254;16.422;2024-01-27T13:17:51;24.30;50.40
17182;DHT22;8706;48.254;16.422;2024-01-27T13:20:18;24.30;50.30
17182;DHT22;8706;48.254;16.422;2024-01-27T13:22:45;24.30;50.30
17182;DHT22;8706;48.254;16.422;2024-01-27T13:25:12;24.30;50.40
17182;DHT22;8706;48.254;16.422;2024-01-27T13:27:39;24.40;50.30
17182;DHT22;8706;48.254;16.422;2024-01-27T13:30:08;24.40;50.30
17182;DHT22;8706;48.254;16.422;2024-01-27T13:32:35;24.40;50.30
17182;DHT22;8706;48.254;16.422;2024-01-27T13:35:02;24.30;50.30
17182;DHT22;8706;48.254;16.422;2024-01-27T13:37:29;24.40;50.30
17182;DHT22;8706;48.254;16.422;2024-01-27T13:39:59;24.30;50.30
17182;DHT22;8706;48.254;16.422;2024-01-27T13:42:26;24.30;50.40
17182;DHT22;8706;48.254;16.422;2024-01-27T13:44:53;24.30;50.40
17182;DHT22;8706;48.254;16.422;2024-01-27T13:47:21;24.30;50.40
17182;DHT22;8706;48.254;16.422;2024-01-27T13:49:48;24.30;50.50
17182;DHT22;8706;48.254;16.422;2024-01-27T13:52:15;24.30;50.50
17182;DHT22;8706;48.254;16.422;2024-01-27T13:54:42;24.20;50.50
17182;DHT22;8706;48.254;16.422;2024-01-27T13:57:09;24.20;50.60
17182;DHT22;8706;48.254;16.422;2024-01-27T13:59:36;24.20;50.60
17182;DHT22;8706;48.254;16.422;2024-01-27T14:02:04;24.20;50.60
17182;DHT22;8706;48.254;16.422;2024-01-27T14:04:32;24.20;50.70
17182;DHT22;8706;48.254;16.422;2024-01-27T14:06:59;24.20;50.70
17182;DHT22;8706;48.254;16.422;2024-01-27T14:09:28;24.10;50.80
17182;DHT22;8706;48.254;16.422;2024-01-27T14:11:55;24.20;50.70
17182;DHT22;8706;48.254;16.422;2024-01-27T14:14:22;24.10;50.80
17182;DHT22;8706;48.254;16.422;2024-01-27T14:16:49;24.10;50.90
17182;DHT22;8706;48.254;16.422;2024-01-27T14:19:16;24.10;50.80
17182;DHT22;8706;48.254;16.422;2024-01-27T14:21:44;24.10;50.90
17182;DHT22;8706;48.254;16.422;2024-01-27T14:24:11;24.00;50.90
17182;DHT22;8706;48.254;16.422;2024-01-27T14:26:38;24.00;51.00
17182;DHT22;8706;48.254;16.422;2024-01-27T14:29:05;24.00;51.00
17182;DHT22;8706;48.254;16.422;2024-01-27T14:31:32;24.00;51.10
17182;DHT22;8706;48.254;16.422;2024-01-27T14:33:59;23.90;51.10
17182;DHT22;8706;48.254;16.422;2024-01-27T14:36:26;23.90;51.20
17182;DHT22;8706;48.254;16.422;2024-01-27T14:38:54;23.80;51.20
17182;DHT22;8706;48.254;16.422;2024-01-27T14:41:21;23.80;51.10
17182;DHT22;8706;48.254;16.422;2024-01-27T14:43:49;23.70;51.20
17182;DHT22;8706;48.254;16.422;2024-01-27T14:46:17;23.70;51.30
17182;DHT22;8706;48.254;16.422;2024-01-27T14:48:44;23.70;51.40
17182;DHT22;8706;48.254;16.422;2024-01-27T14:51:11;23.60;51.50
17182;DHT22;8706;48.254;16.422;2024-01-27T14:53:38;23.60;51.50
17182;DHT22;8706;48.254;16.422;2024-01-27T14:56:07;23.60;51.60
17182;DHT22;8706;48.254;16.422;2024-01-27T14:58:34;23.50;51.70
17182;DHT22;8706;48.254;16.422;2024-01-27T15:01:00;23.40;51.70
17182;DHT22;8706;48.254;16.422;2024-01-27T15:03:27;23.40;51.80
17182;DHT22;8706;48.254;16.422;2024-01-27T15:05:54;23.30;51.80
17182;DHT22;8706;48.254;16.422;2024-01-27T15:08:22;23.30;51.90
17182;DHT22;8706;48.254;16.422;2024-01-27T15:10:49;23.20;51.80
17182;DHT22;8706;48.254;16.422;2024-01-27T15:13:17;23.20;52.10
17182;DHT22;8706;48.254;16.422;2024-01-27T15:15:46;23.10;52.10
17182;DHT22;8706;48.254;16.422;2024-01-27T15:18:13;23.10;52.20
17182;DHT22;8706;48.254;16.422;2024-01-27T15:20:40;23.00;52.40
17182;DHT22;8706;48.254;16.422;2024-01-27T15:23:07;22.90;52.40
17182;DHT22;8706;48.254;16.422;2024-01-27T15:25:34;22.80;52.50
17182;DHT22;8706;48.254;16.422;2024-01-27T15:28:01;22.80;52.60
17182;DHT22;8706;48.254;16.422;2024-01-27T15:30:29;22.70;52.60